createdAt,value
2019-02-27T00:01:08.183Z,29.90
2019-02-27T00:03:39.286Z,31.77
2019-02-27T00:06:17.598Z,28.42
2019-02-27T00:08:51.800Z,29.00
2019-02-27T00:11:21.551Z,33.60
2019-02-27T00:13:58.555Z,24.80
2019-02-27T00:16:37.355Z,29.02
2019-02-27T00:19:08.482Z,29.45
2019-02-27T00:21:40.921Z,28.52
2019-02-27T00:24:15.547Z,26.80
2019-02-27T00:26:47.058Z,28.50
2019-02-27T00:29:20.942Z,28.38
2019-02-27T00:31:51.836Z,25.60
2019-02-27T00:34:24.698Z,26.17
2019-02-27T00:36:58.033Z,24.80
2019-02-27T00:39:31.291Z,31.33
2019-02-27T00:42:07.037Z,38.10
2019-02-27T00:44:39.133Z,52.40
2019-02-27T00:47:09.946Z,62.13
2019-02-27T00:49:44.782Z,59.63
2019-02-27T00:52:18.051Z,51.30
2019-02-27T00:54:44.282Z,47.43
2019-02-27T00:57:20.596Z,49.67
2019-02-27T00:59:47.610Z,43.92
2019-02-27T01:02:20.248Z,41.13
2019-02-27T01:04:49.881Z,45.67
2019-02-27T01:07:20.658Z,48.83
2019-02-27T01:09:49.847Z,47.23
2019-02-27T01:12:25.234Z,43.30
2019-02-27T01:14:54.328Z,33.35
2019-02-27T01:17:24.811Z,37.08
2019-02-27T01:19:53.930Z,31.02
2019-02-27T01:22:24.536Z,33.53
2019-02-27T01:24:55.603Z,27.93
2019-02-27T01:27:26.511Z,29.57
2019-02-27T01:30:00.728Z,27.17
2019-02-27T01:32:32.522Z,33.83
2019-02-27T01:35:06.012Z,31.50
2019-02-27T01:40:08.180Z,25.05
2019-02-27T01:42:40.351Z,28.15
2019-02-27T01:45:20.710Z,29.20
2019-02-27T01:47:53.016Z,30.37
2019-02-27T01:50:29.966Z,27.73
2019-02-27T01:53:07.034Z,29.70
2019-02-27T01:55:40.317Z,26.60
2019-02-27T01:58:12.892Z,30.02
2019-02-27T02:00:43.943Z,27.80
2019-02-27T02:03:16.529Z,30.45
2019-02-27T02:05:48.479Z,26.47
2019-02-27T02:08:20.801Z,29.27
2019-02-27T02:10:52.134Z,32.75
2019-02-27T02:13:42.884Z,24.57
2019-02-27T02:16:39.847Z,30.30
2019-02-27T02:19:41.684Z,26.50
2019-02-27T02:22:25.254Z,30.45
2019-02-27T02:25:54.020Z,28.45
2019-02-27T02:29:09.091Z,30.08
2019-02-27T02:31:50.999Z,35.03
2019-02-27T02:34:51.415Z,30.77
2019-02-27T02:37:51.179Z,32.78
2019-02-27T02:40:52.495Z,30.25
2019-02-27T02:43:47.617Z,27.73
2019-02-27T02:46:33.971Z,33.38
2019-02-27T02:49:44.023Z,27.32
2019-02-27T02:53:06.156Z,32.42
2019-02-27T02:56:03.486Z,25.50
2019-02-27T02:59:07.869Z,27.42
2019-02-27T03:01:53.868Z,28.92
2019-02-27T03:04:59.674Z,30.77
2019-02-27T03:07:49.027Z,29.50
2019-02-27T03:10:52.799Z,30.17
2019-02-27T03:13:45.669Z,27.20
2019-02-27T03:16:44.085Z,33.83
2019-02-27T03:19:28.307Z,38.48
2019-02-27T03:22:24.937Z,32.50
2019-02-27T03:25:16.082Z,31.25
2019-02-27T03:28:46.072Z,32.75
2019-02-27T03:31:37.571Z,26.90
2019-02-27T03:34:47.994Z,32.80
2019-02-27T03:37:24.650Z,33.45
2019-02-27T03:40:36.453Z,35.40
2019-02-27T03:43:54.167Z,38.63
2019-02-27T03:46:54.515Z,37.17
2019-02-27T03:49:40.969Z,33.50
2019-02-27T03:52:50.152Z,33.58
2019-02-27T03:55:46.043Z,29.50
2019-02-27T03:58:43.651Z,32.75
2019-02-27T04:01:46.081Z,29.52
2019-02-27T04:04:37.222Z,32.60
2019-02-27T04:07:44.355Z,32.23
2019-02-27T04:10:17.928Z,30.23
2019-02-27T04:12:54.212Z,32.28
2019-02-27T04:15:23.264Z,33.30
2019-02-27T04:17:52.372Z,34.30
2019-02-27T04:20:26.838Z,34.15
2019-02-27T04:23:03.005Z,32.48
2019-02-27T04:25:32.273Z,31.62
2019-02-27T04:28:05.076Z,33.67
2019-02-27T04:30:34.890Z,35.10
2019-02-27T04:33:08.670Z,30.48
2019-02-27T04:35:45.548Z,32.58
2019-02-27T04:38:15.814Z,31.23
2019-02-27T04:40:46.177Z,27.35
2019-02-27T04:43:17.000Z,30.52
2019-02-27T04:45:48.684Z,33.65
2019-02-27T04:48:24.362Z,33.18
2019-02-27T04:50:53.963Z,45.00
2019-02-27T04:53:24.945Z,36.40
2019-02-27T04:55:57.288Z,38.17
2019-02-27T04:58:35.865Z,34.25
2019-02-27T05:01:10.750Z,32.23
2019-02-27T05:03:47.416Z,35.85
2019-02-27T05:06:18.085Z,32.90
2019-02-27T05:08:55.038Z,33.88
2019-02-27T05:11:28.677Z,31.55
2019-02-27T05:14:32.418Z,35.03
2019-02-27T05:17:15.576Z,35.25
2019-02-27T05:19:44.126Z,38.70
2019-02-27T05:22:12.652Z,34.08
2019-02-27T05:24:45.314Z,33.78
2019-02-27T05:27:14.608Z,41.73
2019-02-27T05:29:46.160Z,32.63
2019-02-27T05:32:18.207Z,36.08
2019-02-27T05:34:49.932Z,31.60
2019-02-27T05:37:22.798Z,33.85
2019-02-27T05:39:52.599Z,35.85
2019-02-27T05:42:22.190Z,39.13
2019-02-27T05:44:56.927Z,37.83
2019-02-27T05:47:29.277Z,36.70
2019-02-27T05:50:01.818Z,34.45
2019-02-27T05:52:32.756Z,35.10
2019-02-27T05:55:06.131Z,38.48
2019-02-27T05:57:39.009Z,31.97
2019-02-27T06:00:12.610Z,38.65
2019-02-27T06:02:46.206Z,32.63
2019-02-27T06:05:22.865Z,32.05
2019-02-27T06:08:03.136Z,32.38
2019-02-27T06:10:33.987Z,29.40
2019-02-27T06:13:02.948Z,32.98
2019-02-27T06:15:35.710Z,32.33
2019-02-27T06:18:06.283Z,32.83
2019-02-27T06:20:38.939Z,33.00
2019-02-27T06:23:31.357Z,34.65
2019-02-27T06:26:09.129Z,34.67
2019-02-27T06:28:43.531Z,33.78
2019-02-27T06:31:16.125Z,34.50
2019-02-27T06:33:51.632Z,32.75
2019-02-27T06:36:26.364Z,33.08
2019-02-27T06:39:01.407Z,32.75
2019-02-27T06:41:34.759Z,32.23
2019-02-27T06:46:34.543Z,33.05
2019-02-27T06:49:05.731Z,33.50
2019-02-27T06:51:36.602Z,35.00
2019-02-27T06:54:05.823Z,36.63
2019-02-27T06:56:36.807Z,34.88
2019-02-27T06:59:09.013Z,34.15
2019-02-27T07:01:41.027Z,32.40
2019-02-27T07:04:16.050Z,35.30
2019-02-27T07:06:49.669Z,30.77
2019-02-27T07:09:21.595Z,34.70
2019-02-27T07:11:59.633Z,33.98
2019-02-27T07:14:28.368Z,34.60
2019-02-27T07:17:02.364Z,29.52
2019-02-27T07:19:34.546Z,33.98
2019-02-27T07:22:06.306Z,38.20
2019-02-27T07:24:54.759Z,32.58
2019-02-27T07:27:25.328Z,36.60
2019-02-27T07:29:59.399Z,32.53
2019-02-27T07:32:36.521Z,39.18
2019-02-27T07:35:12.275Z,31.12
2019-02-27T07:37:47.961Z,29.10
2019-02-27T07:40:18.530Z,28.17
2019-02-27T07:42:47.843Z,24.87
2019-02-27T07:45:17.154Z,31.00
2019-02-27T07:47:48.278Z,28.90
2019-02-27T07:50:18.307Z,29.48
2019-02-27T07:52:53.136Z,30.52
2019-02-27T07:55:28.223Z,32.35
2019-02-27T07:58:00.537Z,31.20
2019-02-27T08:00:35.887Z,39.40
2019-02-27T08:03:09.051Z,30.37
2019-02-27T08:05:46.035Z,37.55
2019-02-27T08:08:16.958Z,32.45
2019-02-27T08:10:52.457Z,30.55
2019-02-27T08:13:21.216Z,31.02
2019-02-27T08:15:54.612Z,33.88
2019-02-27T08:18:36.562Z,28.42
2019-02-27T08:21:04.100Z,35.17
2019-02-27T08:23:35.980Z,30.30
2019-02-27T08:26:06.148Z,34.98
2019-02-27T08:28:36.053Z,29.32
2019-02-27T08:31:07.597Z,28.00
2019-02-27T08:33:37.826Z,29.98
2019-02-27T08:36:10.291Z,25.52
2019-02-27T08:38:39.438Z,25.05
2019-02-27T08:41:09.911Z,24.72
2019-02-27T08:43:41.239Z,28.45
2019-02-27T08:46:13.008Z,30.92
2019-02-27T08:48:49.900Z,33.80
2019-02-27T08:51:17.762Z,41.63
2019-02-27T08:53:53.804Z,28.23
2019-02-27T08:56:25.820Z,29.95
2019-02-27T08:58:55.779Z,35.85
2019-02-27T09:01:29.038Z,28.05
2019-02-27T09:03:57.961Z,30.17
2019-02-27T09:06:28.341Z,34.92
2019-02-27T09:09:04.465Z,30.37
2019-02-27T09:11:42.382Z,36.30
2019-02-27T09:14:15.107Z,36.55
2019-02-27T09:16:43.715Z,39.83
2019-02-27T09:21:41.701Z,33.23
2019-02-27T09:24:17.855Z,25.60
2019-02-27T09:26:54.041Z,26.25
2019-02-27T09:29:25.444Z,25.92
2019-02-27T09:31:57.040Z,23.22
2019-02-27T09:34:32.755Z,29.60
2019-02-27T09:37:02.306Z,25.37
2019-02-27T09:39:35.240Z,27.17
2019-02-27T09:42:09.253Z,28.13
2019-02-27T09:44:44.999Z,26.45
2019-02-27T09:47:16.060Z,23.27
2019-02-27T09:49:46.700Z,25.62
2019-02-27T09:52:17.550Z,23.75
2019-02-27T09:54:51.520Z,25.15
2019-02-27T09:57:23.459Z,24.87
2019-02-27T09:59:57.210Z,24.23
2019-02-27T10:02:26.186Z,27.80
2019-02-27T10:05:01.417Z,28.70
2019-02-27T10:07:32.166Z,28.27
2019-02-27T10:10:10.218Z,30.70
2019-02-27T10:12:42.286Z,35.80
2019-02-27T10:15:16.109Z,29.67
2019-02-27T10:20:16.409Z,25.97
2019-02-27T10:22:45.583Z,29.20
2019-02-27T10:25:17.217Z,29.65
2019-02-27T10:27:49.517Z,29.05
2019-02-27T10:30:21.896Z,25.82
2019-02-27T10:32:54.249Z,26.02
2019-02-27T10:35:29.379Z,25.57
2019-02-27T10:37:59.817Z,25.52
2019-02-27T10:40:32.067Z,32.67
2019-02-27T10:43:03.797Z,26.23
2019-02-27T10:45:42.102Z,24.77
2019-02-27T10:48:13.389Z,24.23
2019-02-27T10:50:46.001Z,22.93
2019-02-27T10:53:27.469Z,26.25
2019-02-27T10:55:58.870Z,27.45
2019-02-27T10:58:33.751Z,24.02
2019-02-27T11:01:09.641Z,21.93
2019-02-27T11:03:39.793Z,21.60
2019-02-27T11:06:12.450Z,25.48
2019-02-27T11:08:43.311Z,21.37
2019-02-27T11:11:13.193Z,21.30
2019-02-27T11:13:51.728Z,19.00
2019-02-27T11:16:25.332Z,22.55
2019-02-27T11:18:57.727Z,20.92
2019-02-27T11:21:29.586Z,18.75
2019-02-27T11:24:02.799Z,21.90
2019-02-27T11:26:41.915Z,21.80
2019-02-27T11:29:14.085Z,19.30
2019-02-27T11:31:45.593Z,17.52
2019-02-27T11:34:16.149Z,18.75
2019-02-27T11:36:45.145Z,16.90
2019-02-27T11:39:16.630Z,18.35
2019-02-27T11:41:49.180Z,18.32
2019-02-27T11:44:21.832Z,17.77
2019-02-27T11:46:58.620Z,19.57
2019-02-27T11:49:29.655Z,23.47
2019-02-27T11:54:33.888Z,17.00
2019-02-27T11:57:07.669Z,16.65
2019-02-27T12:02:10.365Z,17.98
2019-02-27T12:04:41.100Z,18.50
2019-02-27T12:07:12.297Z,21.37
2019-02-27T12:09:43.984Z,20.85
2019-02-27T12:12:14.199Z,17.52
2019-02-27T12:14:47.855Z,18.37
2019-02-27T12:17:18.205Z,16.70
2019-02-27T12:19:53.588Z,18.52
2019-02-27T12:22:24.414Z,17.75
2019-02-27T12:25:00.872Z,18.85
2019-02-27T12:27:48.787Z,21.33
2019-02-27T12:30:14.126Z,22.02
2019-02-27T12:32:46.260Z,18.67
2019-02-27T12:35:20.834Z,17.42
2019-02-27T12:37:51.424Z,17.48
2019-02-27T12:40:24.997Z,17.60
2019-02-27T12:45:29.694Z,16.62
2019-02-27T12:48:04.583Z,16.87
2019-02-27T12:50:38.592Z,19.50
2019-02-27T12:53:08.000Z,13.93
2019-02-27T12:55:38.475Z,19.12
2019-02-27T12:58:09.135Z,15.65
2019-02-27T13:00:39.929Z,16.30
2019-02-27T13:03:13.048Z,16.17
2019-02-27T13:05:51.673Z,17.32
2019-02-27T13:08:26.924Z,18.73
2019-02-27T13:10:57.484Z,14.75
2019-02-27T13:13:26.521Z,19.73
2019-02-27T13:15:57.088Z,16.60
2019-02-27T13:18:32.030Z,16.45
2019-02-27T13:21:01.555Z,13.53
2019-02-27T13:23:36.381Z,16.80
2019-02-27T13:26:08.508Z,14.95
2019-02-27T13:28:41.446Z,14.05
2019-02-27T13:31:13.655Z,18.43
2019-02-27T13:33:48.316Z,13.80
2019-02-27T13:36:20.308Z,15.53
2019-02-27T13:38:51.971Z,15.45
2019-02-27T13:41:20.572Z,12.15
2019-02-27T13:43:49.517Z,14.23
2019-02-27T13:46:22.723Z,13.28
2019-02-27T13:48:55.571Z,14.30
2019-02-27T13:51:29.059Z,15.03
2019-02-27T13:54:00.547Z,16.77
2019-02-27T13:56:30.830Z,13.55
2019-02-27T13:59:02.910Z,13.00
2019-02-27T14:01:34.576Z,13.45
2019-02-27T14:04:08.613Z,14.33
2019-02-27T14:06:42.858Z,13.62
2019-02-27T14:09:19.020Z,13.18
2019-02-27T14:11:51.325Z,12.45
2019-02-27T14:14:23.948Z,12.30
2019-02-27T14:16:57.632Z,13.00
2019-02-27T14:19:28.198Z,11.83
2019-02-27T14:21:56.799Z,14.85
2019-02-27T14:24:25.816Z,12.75
2019-02-27T14:26:54.425Z,14.30
2019-02-27T14:29:29.795Z,12.85
2019-02-27T14:32:04.714Z,12.82
2019-02-27T14:34:35.888Z,14.35
2019-02-27T14:37:08.270Z,15.80
2019-02-27T14:39:38.190Z,13.75
2019-02-27T14:42:10.216Z,14.53
2019-02-27T14:44:41.119Z,14.35
2019-02-27T14:47:16.435Z,13.70
2019-02-27T14:49:47.155Z,13.35
2019-02-27T14:52:16.289Z,18.32
2019-02-27T14:54:45.145Z,12.70
2019-02-27T14:57:16.100Z,13.30
2019-02-27T14:59:47.581Z,13.40
2019-02-27T15:02:22.415Z,12.50
2019-02-27T15:04:56.647Z,15.45
2019-02-27T15:07:27.152Z,11.15
2019-02-27T15:09:57.163Z,12.18
2019-02-27T15:12:33.948Z,15.83
2019-02-27T15:15:02.959Z,14.83
2019-02-27T15:17:38.786Z,17.35
2019-02-27T15:20:09.497Z,15.48
2019-02-27T15:22:38.562Z,15.98
2019-02-27T15:25:12.428Z,11.53
2019-02-27T15:27:41.460Z,14.18
2019-02-27T15:30:28.068Z,13.38
2019-02-27T15:32:56.991Z,17.95
2019-02-27T15:35:28.440Z,13.72
2019-02-27T15:37:57.573Z,11.55
2019-02-27T15:40:33.829Z,13.25
2019-02-27T15:43:11.010Z,18.32
2019-02-27T15:45:35.303Z,16.20
2019-02-27T15:48:06.879Z,16.60
2019-02-27T15:50:38.016Z,14.90
2019-02-27T15:53:07.227Z,15.95
2019-02-27T15:55:39.266Z,10.30
2019-02-27T15:58:11.724Z,11.30
2019-02-27T16:00:44.124Z,14.87
2019-02-27T16:03:13.131Z,12.93
2019-02-27T16:05:47.381Z,15.10
2019-02-27T16:08:16.372Z,10.93
2019-02-27T16:10:54.770Z,13.35
2019-02-27T16:13:19.427Z,17.35
2019-02-27T16:15:49.307Z,20.37
2019-02-27T16:18:22.748Z,14.50
2019-02-27T16:20:51.820Z,14.18
2019-02-27T16:23:23.843Z,16.02
2019-02-27T16:25:54.933Z,14.20
2019-02-27T16:28:25.576Z,13.10
2019-02-27T16:31:05.944Z,13.93
2019-02-27T16:33:31.827Z,13.65
2019-02-27T16:36:02.521Z,12.50
2019-02-27T16:38:33.741Z,15.60
2019-02-27T16:41:04.517Z,19.48
2019-02-27T16:43:33.485Z,13.20
2019-02-27T16:46:07.687Z,19.27
2019-02-27T16:48:35.660Z,15.13
2019-02-27T16:51:04.728Z,20.12
2019-02-27T16:53:33.652Z,15.43
2019-02-27T16:56:11.860Z,25.00
2019-02-27T16:58:41.642Z,21.25
2019-02-27T17:01:12.159Z,20.17
2019-02-27T17:03:41.370Z,18.90
2019-02-27T17:06:10.430Z,19.57
2019-02-27T17:08:42.762Z,17.70
2019-02-27T17:11:16.569Z,17.62
2019-02-27T17:16:15.339Z,14.65
2019-02-27T17:18:44.617Z,19.62
2019-02-27T17:21:16.521Z,21.80
2019-02-27T17:23:46.703Z,21.90
2019-02-27T17:26:15.602Z,21.25
2019-02-27T17:28:44.422Z,21.70
2019-02-27T17:31:13.622Z,29.45
2019-02-27T17:33:42.700Z,26.90
2019-02-27T17:36:13.658Z,33.75
2019-02-27T17:38:45.253Z,23.15
2019-02-27T17:41:16.162Z,26.33
2019-02-27T17:43:45.910Z,32.10
2019-02-27T17:46:14.938Z,30.08
2019-02-27T17:48:45.947Z,39.20
2019-02-27T17:51:14.821Z,33.48
2019-02-27T17:53:45.894Z,35.25
2019-02-27T17:56:15.663Z,34.35
2019-02-27T17:58:45.279Z,29.45
2019-02-27T18:01:16.508Z,25.88
2019-02-27T18:04:05.706Z,25.00
2019-02-27T18:06:36.632Z,28.55
2019-02-27T18:09:30.404Z,26.50
2019-02-27T18:11:59.259Z,23.27
2019-02-27T18:14:28.188Z,25.80
2019-02-27T18:16:59.211Z,25.60
2019-02-27T18:19:28.159Z,22.95
2019-02-27T18:21:57.366Z,21.65
2019-02-27T18:24:26.438Z,27.30
2019-02-27T18:26:55.300Z,26.02
2019-02-27T18:29:28.748Z,26.20
2019-02-27T18:32:01.190Z,31.80
2019-02-27T18:34:28.524Z,29.98
2019-02-27T18:37:00.703Z,29.70
2019-02-27T18:39:29.846Z,31.52
2019-02-27T18:42:00.048Z,24.95
2019-02-27T18:44:29.289Z,28.20
2019-02-27T18:47:02.411Z,33.38
2019-02-27T18:49:32.314Z,30.10
2019-02-27T18:52:06.410Z,29.05
2019-02-27T18:54:32.357Z,21.48
2019-02-27T18:57:03.308Z,22.70
2019-02-27T18:59:32.113Z,34.65
2019-02-27T19:02:07.393Z,47.25
2019-02-27T19:04:36.617Z,44.03
2019-02-27T19:07:05.688Z,36.28
2019-02-27T19:09:34.792Z,42.43
2019-02-27T19:12:05.542Z,31.05
2019-02-27T19:14:36.750Z,34.45
2019-02-27T19:17:07.214Z,32.73
2019-02-27T19:19:38.026Z,39.98
2019-02-27T19:22:08.038Z,33.05
2019-02-27T19:24:41.498Z,34.43
2019-02-27T19:27:10.801Z,37.90
2019-02-27T19:29:40.094Z,37.17
2019-02-27T19:32:09.210Z,36.28
2019-02-27T19:34:38.329Z,35.70
2019-02-27T19:37:07.382Z,40.05
2019-02-27T19:39:38.254Z,31.10
2019-02-27T20:09:56.453Z,28.70
2019-02-27T20:12:25.306Z,28.77
2019-02-27T20:14:54.251Z,29.07
2019-02-27T20:17:32.853Z,31.10
2019-02-27T20:20:00.530Z,30.17
2019-02-27T20:22:30.041Z,29.27
2019-02-27T20:25:02.405Z,31.02
2019-02-27T20:27:31.706Z,27.90
2019-02-27T20:30:00.454Z,33.00
2019-02-27T20:32:30.058Z,37.70
2019-02-27T20:34:59.882Z,28.90
2019-02-27T20:37:28.819Z,26.17
2019-02-27T20:39:59.160Z,31.48
2019-02-27T20:42:28.264Z,28.80
2019-02-27T20:44:59.231Z,27.77
2019-02-27T20:47:27.859Z,30.40
2019-02-27T20:49:58.249Z,27.90
2019-02-27T20:52:27.761Z,31.10
2019-02-27T20:54:58.928Z,25.00
2019-02-27T20:57:27.903Z,27.52
2019-02-27T21:00:00.498Z,22.45
2019-02-27T21:02:28.119Z,25.45
2019-02-27T21:04:57.323Z,27.10
2019-02-27T21:07:29.526Z,23.15
2019-02-27T21:09:58.970Z,29.65
2019-02-27T21:12:27.820Z,24.18
2019-02-27T21:14:58.586Z,26.57
2019-02-27T21:17:27.899Z,27.32
2019-02-27T21:19:59.723Z,28.27
2019-02-27T21:22:28.469Z,25.57
2019-02-27T21:24:57.893Z,27.13
2019-02-27T21:27:28.529Z,26.90
2019-02-27T21:29:57.502Z,29.65
2019-02-27T21:32:37.951Z,27.95
2019-02-27T21:35:07.039Z,26.15
2019-02-27T21:37:35.789Z,26.33
2019-02-27T21:40:04.827Z,22.82
2019-02-27T21:42:33.855Z,24.02
2019-02-27T21:45:03.598Z,23.62
2019-02-27T21:47:35.793Z,25.27
2019-02-27T21:50:07.123Z,23.05
2019-02-27T21:52:37.470Z,25.35
2019-02-27T21:55:06.483Z,26.97
2019-02-27T21:57:36.868Z,27.48
2019-02-27T22:00:11.381Z,28.15
2019-02-27T22:02:40.414Z,29.45
2019-02-27T22:05:09.849Z,29.27
2019-02-27T22:07:38.630Z,28.73
2019-02-27T22:10:09.028Z,22.07
2019-02-27T22:12:38.066Z,24.55
2019-02-27T22:15:13.426Z,24.30
2019-02-27T22:17:42.404Z,24.40
2019-02-27T22:20:12.333Z,25.62
2019-02-27T22:22:42.358Z,22.62
2019-02-27T22:25:11.155Z,26.15
2019-02-27T22:27:39.864Z,24.27
2019-02-27T22:30:10.917Z,26.68
2019-02-27T22:32:40.412Z,21.80
2019-02-27T22:35:09.522Z,22.77
2019-02-27T22:37:38.344Z,22.13
2019-02-27T22:40:08.536Z,30.17
2019-02-27T22:42:39.724Z,23.52
2019-02-27T22:45:09.283Z,21.55
2019-02-27T22:47:40.031Z,20.08
2019-02-27T22:50:10.213Z,23.42
2019-02-27T22:52:39.326Z,20.90
2019-02-27T22:55:10.728Z,21.97
2019-02-27T22:57:40.634Z,21.27
2019-02-27T23:00:42.967Z,24.57
2019-02-27T23:03:11.091Z,23.30
2019-02-27T23:05:40.260Z,23.00
2019-02-27T23:08:10.938Z,26.65
2019-02-27T23:10:40.090Z,26.62
2019-02-27T23:13:12.435Z,22.25
2019-02-27T23:15:41.339Z,25.30
2019-02-27T23:18:10.097Z,23.42
2019-02-27T23:20:39.604Z,24.27
2019-02-27T23:23:08.412Z,22.13
2019-02-27T23:25:39.479Z,22.40
2019-02-27T23:28:08.895Z,26.85
2019-02-27T23:30:37.639Z,22.73
2019-02-27T23:33:06.894Z,27.13
2019-02-27T23:35:35.766Z,32.30
2019-02-27T23:38:05.772Z,22.05
2019-02-27T23:40:36.278Z,26.77
2019-02-27T23:43:04.989Z,23.85
2019-02-27T23:45:33.809Z,28.27
2019-02-27T23:48:03.057Z,25.27
2019-02-27T23:50:31.862Z,28.80
2019-02-27T23:53:02.575Z,23.42
2019-02-27T23:55:31.621Z,27.45
2019-02-27T23:58:00.697Z,24.85
